Time;durP1;ratioP1;P1;durP2;ratioP2;P2;SDS_P1;SDS_P2;PMS_P1;PMS_P2;Temp;Humidity;BMP_temperature;BMP_pressure;BME280_temperature;BME280_humidity;BME280_pressure;Samples;Min_cycle;Max_cycle;Signal;HPM_P1;HPM_P2
2021/08/05 00:01:44;;;;;;;9.43;5.95;;;;;;;15.36;81.71;99368.72;5078386;28;20049;-50
2021/08/05 00:04:10;;;;;;;9.13;7.07;;;;;;;15.36;81.96;99359.94;5078634;28;20049;-51
2021/08/05 00:06:35;;;;;;;14.70;6.82;;;;;;;15.35;81.87;99358.25;5078240;28;20413;-50
2021/08/05 00:09:01;;;;;;;12.95;7.00;;;;;;;15.33;82.24;99360.09;5078582;28;20111;-50
2021/08/05 00:11:27;;;;;;;8.75;6.10;;;;;;;15.32;82.33;99358.41;5077663;28;20048;-50
2021/08/05 00:13:53;;;;;;;8.18;6.80;;;;;;;15.32;82.79;99358.41;5077605;28;20131;-50
2021/08/05 00:16:19;;;;;;;9.38;6.05;;;;;;;15.30;82.75;99350.56;5077172;28;20048;-50
2021/08/05 00:18:44;;;;;;;7.47;5.78;;;;;;;15.31;82.38;99354.94;5077085;28;20469;-51
2021/08/05 00:21:10;;;;;;;10.75;6.68;;;;;;;15.32;82.10;99348.72;5078000;28;20071;-51
2021/08/05 00:23:36;;;;;;;10.50;7.35;;;;;;;15.29;82.40;99343.59;5078285;28;20052;-51
2021/08/05 00:26:02;;;;;;;7.10;5.60;;;;;;;15.30;82.34;99347.91;5111061;28;20041;-51
2021/08/05 00:28:28;;;;;;;9.20;6.43;;;;;;;15.31;82.21;99340.88;5078198;28;20071;-51
2021/08/05 00:30:54;;;;;;;8.18;6.70;;;;;;;15.31;82.07;99348.81;5111450;28;20300;-51
2021/08/05 00:33:20;;;;;;;6.78;5.57;;;;;;;15.32;82.31;99339.94;5077004;28;20044;-50
2021/08/05 00:35:47;;;;;;;12.20;6.80;;;;;;;15.33;82.49;99344.28;5076793;28;20194;-51
2021/08/05 00:38:12;;;;;;;6.70;5.07;;;;;;;15.34;82.43;99343.34;5093802;28;20041;-50
2021/08/05 00:40:38;;;;;;;7.50;5.30;;;;;;;15.34;82.63;99338.06;5076805;28;20111;-50
2021/08/05 00:43:04;;;;;;;7.13;5.47;;;;;;;15.34;82.46;99336.31;5093865;28;20048;-51
2021/08/05 00:45:30;;;;;;;8.13;5.60;;;;;;;15.36;82.62;99339.69;5094012;28;20045;-51
2021/08/05 00:47:56;;;;;;;7.60;5.65;;;;;;;15.38;82.63;99329.94;5077803;28;20052;-50
2021/08/05 00:50:22;;;;;;;8.68;6.20;;;;;;;15.40;82.66;99324.56;5077541;28;20346;-50
2021/08/05 00:52:47;;;;;;;7.07;5.30;;;;;;;15.41;82.54;99327.13;5059968;28;20465;-50
2021/08/05 00:55:15;;;;;;;7.32;5.57;;;;;;;15.44;82.57;99323.47;5076926;28;20052;-50
2021/08/05 00:57:40;;;;;;;8.45;6.10;;;;;;;15.45;82.41;99319.91;5076560;28;20465;-51
2021/08/05 01:00:07;;;;;;;4.97;4.40;;;;;;;15.49;82.15;99320.59;5076780;28;20048;-51
2021/08/05 01:02:36;;;;;;;8.95;5.82;;;;;;;15.46;82.58;99311.03;5060607;28;20052;-51
2021/08/05 01:05:02;;;;;;;10.07;5.65;;;;;;;15.47;82.52;99317.16;5076686;28;20403;-51
2021/08/05 01:07:40;;;;;;;9.23;4.90;;;;;;;15.53;82.43;99311.56;5076227;28;20052;-50
2021/08/05 01:10:18;;;;;;;8.80;5.45;;;;;;;15.53;82.26;99311.56;5076458;28;20438;-50
2021/08/05 01:12:49;;;;;;;7.93;5.40;;;;;;;15.55;82.40;99307.06;5060463;28;20049;-51
2021/08/05 01:15:25;;;;;;;10.07;4.90;;;;;;;15.58;82.28;99305.13;5092948;28;20086;-51
2021/08/05 01:18:12;;;;;;;6.60;4.45;;;;;;;15.53;82.53;99293.09;5077535;28;20041;-50
2021/08/05 01:20:39;;;;;;;6.40;4.50;;;;;;;15.59;82.58;99306.81;5076330;28;20053;-50
2021/08/05 01:23:27;;;;;;;8.10;4.72;;;;;;;15.64;82.33;99309.22;5092849;28;20048;-50
2021/08/05 01:26:11;;;;;;;8.13;5.75;;;;;;;15.63;82.40;99305.72;5093010;28;20118;-50
2021/08/05 01:28:37;;;;;;;8.90;6.05;;;;;;;15.64;82.68;99309.22;5092600;28;20052;-50
2021/08/05 01:31:05;;;;;;;7.07;5.78;;;;;;;15.67;82.51;99303.81;5043203;28;20044;-50
2021/08/05 01:33:31;;;;;;;10.13;5.20;;;;;;;15.66;82.51;99296.78;5075996;28;20075;-50
2021/08/05 01:35:57;;;;;;;7.03;5.07;;;;;;;15.68;82.96;99294.09;5075915;28;20064;-51
2021/08/05 01:38:22;;;;;;;9.23;4.78;;;;;;;15.69;82.89;99293.16;5075649;28;20052;-50
2021/08/05 01:40:49;;;;;;;7.28;5.72;;;;;;;15.70;83.08;99286.97;5076015;28;20370;-50
2021/08/05 01:43:15;;;;;;;6.65;5.47;;;;;;;15.75;82.70;99292.81;5075875;28;20135;-50
2021/08/05 01:45:41;;;;;;;6.63;5.03;;;;;;;15.76;82.76;99292.75;5075924;28;20059;-51
2021/08/05 01:48:09;;;;;;;8.48;5.25;;;;;;;15.79;82.30;99291.72;5076611;28;20075;-51
2021/08/05 01:50:35;;;;;;;7.00;5.68;;;;;;;15.80;82.33;99286.38;5075760;28;20052;-51
2021/08/05 01:53:02;;;;;;;5.55;4.30;;;;;;;15.78;82.30;99282.09;5092822;28;20062;-50
2021/08/05 01:55:28;;;;;;;7.82;5.80;;;;;;;15.81;82.13;99288.06;5075597;28;20064;-51
2021/08/05 01:57:57;;;;;;;9.98;5.88;;;;;;;15.82;82.23;99288.91;5092300;28;20052;-51
2021/08/05 02:00:23;;;;;;;7.75;6.32;;;;;;;15.80;82.48;99281.09;5075900;28;20044;-51
2021/08/05 02:02:53;;;;;;;9.45;6.32;;;;;;;15.80;82.53;99282.88;5092452;28;20060;-50
2021/08/05 02:05:26;;;;;;;9.57;6.82;;;;;;;15.81;82.52;99289.84;5075896;28;20048;-51
2021/08/05 02:08:02;;;;;;;10.63;7.07;;;;;;;15.81;82.18;99290.69;5058969;28;20056;-51
2021/08/05 02:10:34;;;;;;;10.13;6.68;;;;;;;15.79;82.33;99291.72;5075516;28;20063;-51
2021/08/05 02:13:06;;;;;;;9.13;7.15;;;;;;;15.78;82.11;99288.22;5058530;28;20374;-51
2021/08/05 02:15:34;;;;;;;9.05;6.47;;;;;;;15.75;82.35;99296.31;5058745;28;20044;-51
2021/08/05 02:18:00;;;;;;;8.43;6.15;;;;;;;15.75;82.01;99292.81;5042165;28;20048;-51
2021/08/05 02:20:26;;;;;;;8.90;6.57;;;;;;;15.74;81.91;99293.78;5059273;28;20067;-51
2021/08/05 02:22:52;;;;;;;10.15;6.07;;;;;;;15.73;82.13;99292.03;5058496;28;20045;-50
2021/08/05 02:25:18;;;;;;;8.55;6.75;;;;;;;15.71;82.28;99283.38;5075918;28;20049;-51
2021/08/05 02:27:46;;;;;;;9.73;6.50;;;;;;;15.71;82.18;99286.00;5075362;28;20413;-50
2021/08/05 02:30:12;;;;;;;8.70;6.57;;;;;;;15.69;82.27;99275.53;5075311;28;20056;-51
2021/08/05 02:32:38;;;;;;;11.07;6.88;;;;;;;15.70;82.04;99286.97;5058878;28;20044;-51
2021/08/05 02:35:06;;;;;;;7.90;7.03;;;;;;;15.69;81.93;99277.31;5074984;28;20036;-50
2021/08/05 02:37:31;;;;;;;9.23;6.32;;;;;;;15.67;82.05;99277.41;5075801;28;20358;-50
2021/08/05 02:39:57;;;;;;;11.05;6.53;;;;;;;15.67;81.96;99284.47;5076158;28;20048;-51
2021/08/05 02:42:23;;;;;;;13.02;6.18;;;;;;;15.65;82.12;99289.81;5080208;28;20473;-51
2021/08/05 02:44:49;;;;;;;9.20;7.28;;;;;;;15.64;82.06;99282.81;5080131;28;20059;-50
2021/08/05 02:47:15;;;;;;;13.95;6.70;;;;;;;15.63;82.18;99281.09;5046026;28;20067;-50
2021/08/05 02:49:41;;;;;;;8.02;7.07;;;;;;;15.63;82.12;99286.38;5078964;28;20320;-50
2021/08/05 02:52:07;;;;;;;10.38;7.28;;;;;;;15.61;82.29;99277.72;5079163;28;20059;-51
2021/08/05 02:54:33;;;;;;;8.20;7.13;;;;;;;15.58;82.51;99272.59;5079174;28;20052;-50
2021/08/05 02:56:59;;;;;;;10.65;7.18;;;;;;;15.61;82.46;99275.06;5062458;28;20328;-51
2021/08/05 02:59:26;;;;;;;8.85;6.82;;;;;;;15.61;82.44;99267.16;5078662;28;20055;-50
2021/08/05 03:01:52;;;;;;;8.45;7.05;;;;;;;15.58;82.23;99268.16;5095868;28;20198;-51
2021/08/05 03:04:18;;;;;;;10.68;6.07;;;;;;;15.62;82.11;99276.75;5079800;28;20056;-51
2021/08/05 03:06:45;;;;;;;7.95;5.97;;;;;;;15.61;82.35;99270.63;5079440;28;20041;-50
2021/08/05 03:09:11;;;;;;;7.18;6.20;;;;;;;15.61;82.19;99269.78;5045654;28;20071;-50
2021/08/05 03:11:37;;;;;;;7.65;6.65;;;;;;;15.61;82.60;99273.28;5079615;28;20052;-51
2021/08/05 03:14:02;;;;;;;11.60;6.65;;;;;;;15.62;82.48;99266.22;5095320;28;20366;-50
2021/08/05 03:16:28;;;;;;;7.65;6.70;;;;;;;15.61;82.59;99257.44;5079765;28;20036;-51
2021/08/05 03:18:54;;;;;;;8.10;6.20;;;;;;;15.62;82.29;99261.78;5062395;28;20376;-50
2021/08/05 03:21:20;;;;;;;7.90;5.15;;;;;;;15.62;82.49;99256.50;5112190;28;20037;-51
2021/08/05 03:23:46;;;;;;;9.02;6.50;;;;;;;15.65;82.25;99252.84;5079413;28;20056;-50
2021/08/05 03:26:12;;;;;;;7.18;6.15;;;;;;;15.65;82.37;99242.28;5079019;28;20129;-50
2021/08/05 03:28:38;;;;;;;8.93;6.82;;;;;;;15.63;82.47;99249.41;5079311;28;20049;-50
2021/08/05 03:31:04;;;;;;;9.88;7.47;;;;;;;15.63;82.40;99249.41;5078965;28;20044;-51
2021/08/05 03:33:30;;;;;;;7.45;6.03;;;;;;;15.65;82.45;99248.41;5079221;28;20048;-50
2021/08/05 03:35:56;;;;;;;8.05;6.85;;;;;;;15.65;82.30;99248.41;5079124;28;20079;-50
2021/08/05 03:38:21;;;;;;;9.55;7.05;;;;;;;15.67;82.50;99247.53;5079113;28;20052;-51
2021/08/05 03:40:48;;;;;;;10.38;7.45;;;;;;;15.68;82.67;99234.22;5077926;28;20049;-51
2021/08/05 03:43:13;;;;;;;6.82;6.10;;;;;;;15.69;82.67;99235.94;5112021;28;20044;-51
2021/08/05 03:45:39;;;;;;;7.60;6.80;;;;;;;15.70;82.81;99242.94;5078769;28;20438;-51
2021/08/05 03:48:05;;;;;;;10.38;7.07;;;;;;;15.72;82.78;99248.13;5078998;28;20040;-50
2021/08/05 03:50:31;;;;;;;10.98;7.13;;;;;;;15.75;82.93;99247.94;5078549;28;20060;-51
2021/08/05 03:52:56;;;;;;;8.15;7.30;;;;;;;15.77;83.20;99241.66;5078631;28;20040;-50
2021/08/05 03:55:22;;;;;;;8.15;7.22;;;;;;;15.80;82.86;99254.69;5078770;28;20055;-51
2021/08/05 03:57:48;;;;;;;10.15;8.25;;;;;;;15.81;83.00;99248.47;5078472;28;20056;-51
2021/08/05 04:00:15;;;;;;;13.35;7.47;;;;;;;15.85;82.90;99249.97;5078470;28;20397;-51
2021/08/05 04:02:41;;;;;;;10.05;8.70;;;;;;;15.85;83.27;99242.06;5078675;28;20053;-51
2021/08/05 04:05:07;;;;;;;9.85;8.27;;;;;;;15.88;83.21;99244.53;5078341;28;20045;-51
2021/08/05 04:07:33;;;;;;;10.90;9.05;;;;;;;15.92;83.42;99250.50;5078359;28;20037;-51
2021/08/05 04:09:59;;;;;;;14.30;11.43;;;;;;;15.90;83.92;99252.38;5078618;28;20048;-50
2021/08/05 04:12:25;;;;;;;12.52;9.95;;;;;;;15.94;83.58;99251.28;5078547;28;20494;-50
2021/08/05 04:14:51;;;;;;;13.60;9.73;;;;;;;15.94;83.97;99253.91;5078423;28;20044;-51
2021/08/05 04:17:16;;;;;;;14.32;12.32;;;;;;;15.99;83.73;99253.63;5078455;28;20056;-51
2021/08/05 04:19:42;;;;;;;12.93;10.77;;;;;;;16.00;83.89;99248.28;5078731;28;20040;-51
2021/08/05 04:22:08;;;;;;;11.75;10.50;;;;;;;15.99;84.12;99251.00;5078350;28;20482;-51
2021/08/05 04:24:34;;;;;;;13.60;11.48;;;;;;;16.02;84.01;99240.25;5077981;28;20332;-51
2021/08/05 04:26:59;;;;;;;14.35;12.30;;;;;;;16.01;84.45;99233.28;5077432;28;20051;-50
2021/08/05 04:29:25;;;;;;;14.13;10.13;;;;;;;16.04;84.26;99235.75;5078213;28;20055;-51
2021/08/05 04:31:51;;;;;;;13.77;10.15;;;;;;;16.10;83.78;99227.50;5077835;28;20059;-51
2021/08/05 04:34:17;;;;;;;17.10;13.82;;;;;;;16.12;83.92;99231.75;5078124;28;20044;-50
2021/08/05 04:36:42;;;;;;;12.70;11.30;;;;;;;16.08;83.78;99219.63;5076832;28;20059;-50
2021/08/05 04:39:09;;;;;;;13.40;11.70;;;;;;;16.11;83.97;99226.53;5077715;28;20049;-50
2021/08/05 04:41:34;;;;;;;11.77;9.90;;;;;;;16.13;83.88;99227.31;5076795;28;20114;-51
2021/08/05 04:44:00;;;;;;;13.23;9.85;;;;;;;16.09;84.10;99224.00;5078201;28;20040;-50
2021/08/05 04:46:26;;;;;;;14.35;11.65;;;;;;;16.08;84.15;99226.72;5060402;28;20044;-51
2021/08/05 04:48:52;;;;;;;11.48;10.35;;;;;;;16.07;84.27;99220.59;5078371;28;20036;-51
2021/08/05 04:51:18;;;;;;;10.63;9.57;;;;;;;16.12;84.21;99223.84;5077795;28;20055;-51
2021/08/05 04:53:44;;;;;;;15.82;9.63;;;;;;;16.18;83.95;99213.84;5077528;28;20036;-51
2021/08/05 04:56:10;;;;;;;12.63;10.18;;;;;;;16.16;83.94;99215.72;5077571;28;20052;-50
2021/08/05 04:58:35;;;;;;;14.45;10.40;;;;;;;16.17;84.03;99217.44;5077359;28;20351;-51
2021/08/05 05:01:01;;;;;;;11.63;10.02;;;;;;;16.18;84.17;99219.97;5077229;28;20438;-51
2021/08/05 05:03:27;;;;;;;13.55;8.80;;;;;;;16.21;84.31;99224.22;5077323;28;20106;-51
2021/08/05 05:05:53;;;;;;;17.08;11.15;;;;;;;16.23;84.26;99225.00;5077488;28;20044;-50
2021/08/05 05:08:20;;;;;;;11.68;9.95;;;;;;;16.31;84.28;99225.41;5077345;28;20041;-50
2021/08/05 05:10:47;;;;;;;12.20;9.68;;;;;;;16.38;84.09;99224.13;5077359;28;20079;-51
2021/08/05 05:13:13;;;;;;;11.45;10.25;;;;;;;16.40;84.00;99222.22;5078129;28;20080;-51
2021/08/05 05:15:39;;;;;;;13.63;12.25;;;;;;;16.44;84.15;99223.75;5076917;28;20447;-51
2021/08/05 05:18:05;;;;;;;14.55;12.05;;;;;;;16.44;84.22;99221.09;5076664;28;20037;-50
2021/08/05 05:20:31;;;;;;;12.38;11.00;;;;;;;16.45;84.13;99211.41;5059409;28;20063;-50
2021/08/05 05:22:57;;;;;;;12.43;11.00;;;;;;;16.49;84.42;99218.22;5077128;28;20048;-51
2021/08/05 05:25:22;;;;;;;17.77;12.13;;;;;;;16.55;84.50;99216.06;5077085;28;20434;-51
2021/08/05 05:27:48;;;;;;;15.68;13.23;;;;;;;16.59;84.47;99219.38;5077363;28;20044;-51
2021/08/05 05:30:15;;;;;;;14.27;11.00;;;;;;;16.67;84.53;99221.53;5076147;28;20049;-51
2021/08/05 05:32:43;;;;;;;17.63;14.30;;;;;;;16.73;84.22;99214.09;5076656;28;20580;-51
2021/08/05 05:35:09;;;;;;;16.92;12.82;;;;;;;16.77;84.43;99214.81;5076505;28;20052;-51
2021/08/05 05:37:35;;;;;;;16.13;12.40;;;;;;;16.84;84.66;99208.22;5076584;28;20397;-51
2021/08/05 05:40:01;;;;;;;15.48;12.63;;;;;;;16.94;84.76;99212.00;5076564;28;20040;-51
2021/08/05 05:42:26;;;;;;;16.23;13.00;;;;;;;17.06;85.06;99205.09;5075919;28;20076;-51
2021/08/05 05:44:55;;;;;;;15.20;13.52;;;;;;;17.15;84.60;99211.63;5075554;28;20093;-51
2021/08/05 05:47:21;;;;;;;20.08;17.17;;;;;;;17.15;84.35;99206.34;5092957;28;20052;-51
2021/08/05 05:49:47;;;;;;;19.30;14.00;;;;;;;17.16;84.45;99203.63;5076408;28;20454;-51
2021/08/05 05:52:12;;;;;;;14.98;13.20;;;;;;;17.25;84.36;99204.81;5076632;28;20359;-51
2021/08/05 05:54:38;;;;;;;18.63;16.60;;;;;;;17.21;84.54;99196.22;5076517;28;20114;-51
2021/08/05 05:57:04;;;;;;;35.75;31.88;;;;;;;17.31;84.32;99199.16;5075770;28;20385;-51
2021/08/05 05:59:30;;;;;;;22.20;19.95;;;;;;;17.37;84.45;99182.03;5076142;28;20129;-51
2021/08/05 06:01:56;;;;;;;17.98;16.08;;;;;;;17.44;84.35;99186.00;5076185;28;20060;-51
2021/08/05 06:04:22;;;;;;;21.05;16.42;;;;;;;17.55;84.21;99194.13;5076153;28;20063;-51
2021/08/05 06:06:48;;;;;;;24.65;18.58;;;;;;;17.67;84.41;99195.13;5076742;28;20044;-50
2021/08/05 06:09:13;;;;;;;24.63;16.83;;;;;;;17.75;84.07;99192.84;5076421;28;20575;-51
2021/08/05 06:11:39;;;;;;;18.00;16.08;;;;;;;17.85;83.67;99186.03;5076368;28;20044;-51
2021/08/05 06:14:05;;;;;;;20.55;15.00;;;;;;;17.91;83.57;99182.16;5076324;28;20131;-51
2021/08/05 06:16:31;;;;;;;15.70;13.88;;;;;;;17.94;83.34;99181.97;5076269;28;20351;-50
2021/08/05 06:18:56;;;;;;;13.80;12.38;;;;;;;18.00;83.33;99176.22;5076273;28;20114;-50
2021/08/05 06:21:22;;;;;;;17.20;15.02;;;;;;;18.02;83.19;99176.16;5076253;28;20063;-50
2021/08/05 06:23:48;;;;;;;14.77;12.75;;;;;;;18.01;83.45;99174.47;5092503;28;20040;-50
2021/08/05 06:26:14;;;;;;;14.80;12.43;;;;;;;18.09;83.54;99178.28;5076227;28;20371;-51
2021/08/05 06:28:41;;;;;;;11.35;10.25;;;;;;;18.21;83.10;99176.63;5075923;28;20045;-51
2021/08/05 06:31:08;;;;;;;16.73;14.88;;;;;;;18.17;82.51;99170.69;5076188;28;20082;-51
2021/08/05 06:33:35;;;;;;;13.18;11.77;;;;;;;18.25;82.72;99174.63;5076131;28;20382;-50
2021/08/05 06:36:01;;;;;;;13.45;12.15;;;;;;;18.29;82.61;99169.00;5075737;28;20040;-51
2021/08/05 06:38:27;;;;;;;13.70;10.98;;;;;;;18.33;82.00;99170.53;5075853;28;20051;-50
2021/08/05 06:40:52;;;;;;;13.45;12.05;;;;;;;18.38;81.79;99171.03;5076096;28;20076;-51
2021/08/05 06:43:18;;;;;;;17.42;15.15;;;;;;;18.38;81.59;99163.09;5091658;28;20135;-51
2021/08/05 06:45:44;;;;;;;13.57;12.30;;;;;;;18.41;81.54;99168.19;5076043;28;20105;-51
2021/08/05 06:48:10;;;;;;;14.85;13.00;;;;;;;18.48;81.61;99163.31;5075908;28;20059;-51
2021/08/05 06:50:36;;;;;;;13.02;11.25;;;;;;;18.57;81.72;99161.84;5075996;28;20052;-50
2021/08/05 06:53:01;;;;;;;14.63;11.82;;;;;;;18.60;81.15;99166.94;5075659;28;20439;-51
2021/08/05 06:55:27;;;;;;;14.00;12.43;;;;;;;18.66;80.96;99166.53;5075541;28;20041;-51
2021/08/05 06:57:53;;;;;;;13.65;12.23;;;;;;;18.72;81.05;99157.28;5075725;28;20044;-51
2021/08/05 07:00:18;;;;;;;19.52;12.88;;;;;;;18.82;81.17;99167.22;5075791;28;20055;-51
2021/08/05 07:02:44;;;;;;;15.35;11.65;;;;;;;18.87;80.33;99158.91;5075545;28;20054;-51
2021/08/05 07:05:10;;;;;;;11.88;10.68;;;;;;;18.94;80.30;99154.03;5075578;28;20072;-51
2021/08/05 07:07:36;;;;;;;13.23;10.90;;;;;;;19.09;80.78;99159.13;5075797;28;20364;-51
2021/08/05 07:10:03;;;;;;;14.63;12.95;;;;;;;19.15;79.34;99160.50;5074950;28;20423;-51
2021/08/05 07:12:29;;;;;;;11.93;10.02;;;;;;;19.22;79.90;99152.97;5075513;28;20045;-51
2021/08/05 07:14:55;;;;;;;10.20;9.20;;;;;;;19.25;79.40;99156.25;5074812;28;22027;-51
2021/08/05 07:17:21;;;;;;;10.25;9.25;;;;;;;19.29;78.88;99156.88;5075732;28;20063;-51
2021/08/05 07:19:47;;;;;;;10.73;9.63;;;;;;;19.35;79.08;99161.75;5074593;28;20327;-51
2021/08/05 07:22:12;;;;;;;9.48;8.57;;;;;;;19.48;78.70;99159.06;5075345;28;20105;-51
2021/08/05 07:24:38;;;;;;;7.63;6.93;;;;;;;19.67;79.14;99155.94;5075670;28;20052;-51
2021/08/05 07:27:05;;;;;;;11.15;10.02;;;;;;;19.76;78.58;99153.47;5078133;28;20439;-51
2021/08/05 07:29:31;;;;;;;11.27;9.73;;;;;;;19.85;78.32;99149.28;5079071;28;20119;-51
2021/08/05 07:31:57;;;;;;;9.65;8.40;;;;;;;19.89;77.49;99148.09;5078427;28;20091;-51
2021/08/05 07:34:23;;;;;;;10.38;9.38;;;;;;;19.90;77.08;99146.28;5079533;28;20134;-51
2021/08/05 07:36:49;;;;;;;8.07;7.28;;;;;;;20.02;77.20;99145.38;5079108;28;20056;-51
2021/08/05 07:39:14;;;;;;;7.95;7.25;;;;;;;20.16;77.58;99149.66;5078813;28;20358;-51
2021/08/05 07:41:40;;;;;;;7.82;7.10;;;;;;;20.23;76.66;99149.09;5078784;28;20061;-51
2021/08/05 07:44:07;;;;;;;10.80;9.23;;;;;;;20.32;76.04;99152.88;5079091;28;20056;-51
2021/08/05 07:46:32;;;;;;;8.77;7.88;;;;;;;20.36;76.27;99156.13;5078995;28;20045;-51
2021/08/05 07:48:58;;;;;;;9.77;8.88;;;;;;;20.43;76.41;99152.88;5078707;28;20071;-51
2021/08/05 07:51:24;;;;;;;12.85;11.48;;;;;;;20.45;76.46;99156.28;5078615;28;20052;-51
2021/08/05 07:53:49;;;;;;;18.75;15.85;;;;;;;20.45;76.30;99148.31;5078869;28;20052;-51
2021/08/05 07:56:15;;;;;;;77.55;34.08;;;;;;;20.33;75.83;99140.41;5078505;28;20049;-51
2021/08/05 07:58:41;;;;;;;42.45;19.02;;;;;;;20.29;75.95;99134.50;5078534;28;20056;-51
2021/08/05 08:01:07;;;;;;;201.55;77.57;;;;;;;20.19;75.50;99137.00;5078788;28;20044;-51
2021/08/05 08:03:33;;;;;;;197.60;57.35;;;;;;;20.08;75.84;99131.63;5078689;28;20064;-51
2021/08/05 08:05:59;;;;;;;28.60;14.00;;;;;;;20.04;76.76;99130.16;5078688;28;20465;-51
2021/08/05 08:08:25;;;;;;;23.00;12.23;;;;;;;20.00;77.09;99132.19;5078664;28;20049;-51
2021/08/05 08:10:51;;;;;;;44.20;19.52;;;;;;;20.05;76.61;99135.38;5078567;28;20044;-51
2021/08/05 08:13:17;;;;;;;26.25;15.07;;;;;;;20.04;76.64;99131.00;5078327;28;20067;-51
2021/08/05 08:15:42;;;;;;;30.73;17.48;;;;;;;20.01;76.59;99125.91;5078429;28;20044;-51
2021/08/05 08:18:08;;;;;;;13.85;10.38;;;;;;;20.05;76.27;99127.41;5077383;28;20056;-51
2021/08/05 08:20:36;;;;;;;22.90;17.00;;;;;;;19.99;76.29;99124.34;5094142;28;20040;-51
2021/08/05 08:23:02;;;;;;;13.88;11.27;;;;;;;20.04;75.91;99127.50;5078359;28;20127;-51
2021/08/05 08:25:28;;;;;;;13.00;11.45;;;;;;;20.01;75.23;99120.59;5077435;28;20076;-51
2021/08/05 08:27:55;;;;;;;10.63;9.52;;;;;;;20.11;76.50;99125.22;5078031;28;20392;-51
2021/08/05 08:30:21;;;;;;;11.75;10.55;;;;;;;20.21;75.57;99120.91;5110914;28;20044;-51
2021/08/05 08:32:47;;;;;;;14.88;10.35;;;;;;;20.33;75.02;99121.81;5077858;28;20455;-51
2021/08/05 08:35:13;;;;;;;8.93;8.02;;;;;;;20.49;75.94;99120.50;5060585;28;20135;-51
2021/08/05 08:37:39;;;;;;;9.95;8.90;;;;;;;20.61;75.11;99120.59;5076674;28;20059;-51
2021/08/05 08:40:06;;;;;;;9.00;8.15;;;;;;;20.87;74.90;99121.22;5077795;28;20048;-51
2021/08/05 08:42:32;;;;;;;8.85;7.90;;;;;;;20.98;73.78;99118.53;5093667;28;20450;-51
2021/08/05 08:44:57;;;;;;;13.90;10.05;;;;;;;21.06;73.59;99131.22;5077698;28;20355;-51
2021/08/05 08:47:23;;;;;;;15.15;9.02;;;;;;;20.97;72.75;99123.03;5077623;28;20057;-51
2021/08/05 08:49:49;;;;;;;10.15;9.15;;;;;;;20.88;73.21;99134.38;5076995;28;20048;-51
2021/08/05 08:52:17;;;;;;;10.02;8.95;;;;;;;20.86;73.63;99132.81;5077557;28;20064;-51
2021/08/05 08:54:44;;;;;;;7.50;6.70;;;;;;;20.89;73.47;99136.06;5060750;28;20037;-51
2021/08/05 08:57:12;;;;;;;7.15;6.45;;;;;;;21.02;73.83;99141.28;5076818;28;20088;-51
2021/08/05 08:59:38;;;;;;;8.70;7.88;;;;;;;21.00;72.33;99129.91;5076312;28;20470;-51
2021/08/05 09:02:04;;;;;;;8.57;7.78;;;;;;;20.87;72.12;99127.38;5076485;28;20488;-51
2021/08/05 09:04:30;;;;;;;7.18;6.47;;;;;;;20.85;72.12;99131.97;5077522;28;20060;-51
2021/08/05 09:06:56;;;;;;;7.80;7.00;;;;;;;20.86;72.20;99132.81;5077463;28;20102;-51
2021/08/05 09:09:22;;;;;;;7.63;6.68;;;;;;;20.93;72.69;99126.06;5077442;28;20106;-51
2021/08/05 09:11:48;;;;;;;7.53;6.82;;;;;;;20.97;71.79;99127.50;5077444;28;20413;-51
2021/08/05 09:14:13;;;;;;;8.10;7.30;;;;;;;20.91;71.19;99134.16;5093322;28;20370;-50
2021/08/05 09:16:39;;;;;;;7.93;7.22;;;;;;;20.86;71.08;99130.97;5076358;28;20044;-51
2021/08/05 09:19:09;;;;;;;9.77;6.90;;;;;;;20.87;71.06;99129.19;5077250;28;20048;-51
2021/08/05 09:21:35;;;;;;;13.18;7.78;;;;;;;20.69;71.16;99123.47;5077277;28;20137;-51
2021/08/05 09:24:10;;;;;;;6.85;6.15;;;;;;;20.71;71.44;99122.41;5077137;28;20456;-51
2021/08/05 09:26:44;;;;;;;7.95;6.95;;;;;;;20.69;71.63;99124.31;5077689;28;20065;-50
2021/08/05 09:29:10;;;;;;;9.02;8.13;;;;;;;20.54;71.79;99126.38;5077130;28;20072;-51
2021/08/05 09:31:55;;;;;;;10.07;8.07;;;;;;;20.45;72.66;99124.38;5076691;28;20048;-51
2021/08/05 09:34:32;;;;;;;8.63;7.78;;;;;;;20.35;73.24;99120.72;5076967;28;20063;-51
2021/08/05 09:37:09;;;;;;;11.18;9.93;;;;;;;20.30;73.15;99117.56;5076899;28;20052;-51
2021/08/05 09:39:36;;;;;;;8.88;8.07;;;;;;;20.17;73.77;99108.81;5076877;28;20106;-51
2021/08/05 09:42:03;;;;;;;10.43;9.52;;;;;;;20.19;73.53;99115.72;5075935;28;20048;-51
2021/08/05 09:44:38;;;;;;;9.43;7.68;;;;;;;20.23;73.76;99103.03;5075677;28;20045;-51
2021/08/05 09:47:10;;;;;;;8.38;7.65;;;;;;;20.22;74.36;99109.34;5076416;28;20127;-51
2021/08/05 09:49:37;;;;;;;9.05;8.23;;;;;;;20.30;73.62;99104.25;5076440;28;20106;-51
2021/08/05 09:52:06;;;;;;;9.98;8.30;;;;;;;20.43;74.15;99101.53;5075793;28;20055;-51
2021/08/05 09:54:38;;;;;;;9.52;8.63;;;;;;;20.64;73.65;99099.06;5076606;28;20129;-51
2021/08/05 09:57:05;;;;;;;9.35;8.55;;;;;;;20.83;73.82;99098.44;5075286;28;20055;-51
2021/08/05 09:59:31;;;;;;;8.40;7.70;;;;;;;20.89;72.59;99108.63;5092195;28;20061;-51
2021/08/05 10:02:02;;;;;;;8.70;7.72;;;;;;;20.85;71.86;99101.84;5076220;28;20072;-51
2021/08/05 10:04:32;;;;;;;8.68;7.88;;;;;;;20.90;72.66;99102.34;5076356;28;20044;-51
2021/08/05 10:07:04;;;;;;;7.75;7.05;;;;;;;20.90;71.29;99095.19;5076265;28;20102;-51
2021/08/05 10:09:31;;;;;;;10.07;9.18;;;;;;;20.90;71.81;99083.72;5076437;28;20060;-51
2021/08/05 10:12:19;;;;;;;8.15;7.45;;;;;;;21.00;72.60;99088.19;5075527;28;20048;-51
2021/08/05 10:14:46;;;;;;;9.57;7.68;;;;;;;21.07;72.03;99083.22;5076394;28;20063;-51
2021/08/05 10:17:12;;;;;;;7.50;6.47;;;;;;;20.97;71.56;99077.78;5076336;28;20049;-51
2021/08/05 10:19:39;;;;;;;7.63;6.93;;;;;;;20.84;71.46;99081.53;5075987;28;20357;-51
2021/08/05 10:22:06;;;;;;;8.68;7.53;;;;;;;20.58;70.89;99084.41;5076070;28;20366;-51
2021/08/05 10:24:36;;;;;;;8.73;7.85;;;;;;;20.44;71.06;99082.81;5076276;28;20048;-51
2021/08/05 10:27:06;;;;;;;12.18;8.95;;;;;;;20.41;72.08;99068.88;5075437;28;20496;-51
2021/08/05 10:29:34;;;;;;;12.45;8.82;;;;;;;20.42;73.17;99073.25;5076012;28;20377;-51
2021/08/05 10:32:00;;;;;;;10.10;9.10;;;;;;;20.45;73.26;99065.88;5075939;28;20044;-51
2021/08/05 10:34:27;;;;;;;9.95;8.95;;;;;;;20.44;73.14;99068.63;5075854;28;20409;-51
2021/08/05 10:36:52;;;;;;;9.80;8.60;;;;;;;20.47;72.71;99065.72;5075785;28;20037;-51
2021/08/05 10:39:18;;;;;;;10.55;9.48;;;;;;;20.47;71.75;99071.94;5076091;28;20048;-51
2021/08/05 10:41:44;;;;;;;10.77;9.70;;;;;;;20.39;71.42;99062.84;5076056;28;20357;-51
2021/08/05 10:44:11;;;;;;;12.50;11.18;;;;;;;20.36;71.62;99069.22;5076028;28;20052;-51
2021/08/05 10:46:37;;;;;;;12.65;11.45;;;;;;;20.22;72.68;99064.97;5074930;28;20071;-51
2021/08/05 10:49:03;;;;;;;11.98;10.77;;;;;;;20.19;73.31;99069.69;5075159;28;20049;-51
2021/08/05 10:51:36;;;;;;;13.88;12.43;;;;;;;20.27;73.16;99065.47;5075145;28;20048;-51
2021/08/05 10:54:02;;;;;;;;;;;;;;;19.98;73.75;99067.69;5092128;28;20098;-51
2021/08/05 10:56:31;;;;;;;13.48;12.05;;;;;;;20.06;74.25;99065.31;5075587;28;19928;-51
2021/08/05 10:59:10;;;;;;;16.17;14.57;;;;;;;20.08;73.40;99066.03;5075582;28;20040;-51
2021/08/05 11:01:52;;;;;;;14.75;13.35;;;;;;;20.08;74.45;99060.72;5093961;28;20041;-51
2021/08/05 11:04:34;;;;;;;16.02;14.32;;;;;;;20.09;74.53;99053.59;5080415;28;20059;-51
2021/08/05 11:07:36;;;;;;;16.52;14.82;;;;;;;20.15;74.86;99044.28;5079834;28;20114;-51
2021/08/05 11:10:14;;;;;;;17.38;15.68;;;;;;;20.31;74.72;99047.47;5037923;28;20115;-51
2021/08/05 11:12:50;;;;;;;17.27;15.57;;;;;;;20.50;74.35;99042.41;5074867;28;20135;-50
2021/08/05 11:15:32;;;;;;;21.42;18.90;;;;;;;20.50;73.86;99037.09;5079552;28;20040;-51
2021/08/05 11:18:10;;;;;;;;;;;;;;;20.29;74.86;99033.44;5080060;28;20127;-51
2021/08/05 11:20:41;;;;;;;20.75;18.75;;;;;;;20.37;74.56;99031.03;5079529;28;19931;-51
2021/08/05 11:23:07;;;;;;;17.45;15.65;;;;;;;20.31;74.58;99023.53;5078427;28;20041;-51
2021/08/05 11:25:51;;;;;;;17.60;15.85;;;;;;;20.29;73.52;99026.31;5078889;28;20044;-51
2021/08/05 11:28:27;;;;;;;15.45;14.00;;;;;;;20.31;73.36;99016.41;5079142;28;20512;-51